»·PEaware :: N160RA KLAX-KSNA

N160RA :: KLAX-KSNA

FLIGHT INFORMATION

Flight Status: Arrived
Operator: Privately registered:
United States
More flights under this callsign
Pilot: Cody B. (17747)
Aircraft: CESSNA 172 SKYHAWK
(C172)
More flights by this aircraft type
Origin: KLAX Los Angeles Intl
United States
Destination: KSNA John Wayne-Orange Co
United States
More flights between these airports :: More routes between these airports
Route: SLI8 SLI
File this flight plan on PilotEdge
Remarks: TEC route LAXP55
Altitude:
(Current/Filed)
4,000ft
Speed:
(Current/Filed)
110kts
Departed: 10-Feb-20 12:36 PM
Arrived: 10-Feb-20 01:22 PM
Distance/Time
Traveled:
31nm/0:46
Distance/Time
To Go:
Arrived

Flight Plot

Page will automatically refresh every two minutes.

Flight plan parsing failed; only flown route is shown


Map Options




Map Legend


Flown Route
Filed Route
Departure Airport
Arrival Airport
Navaid (VOR, NDB)
Fix

Horizontal Profiles

Position Reports

Time Latitude Longitude Heading Altitude Ground
Speed
10-Feb-20 12:10 33.932872 -118.405432 11 118ft 0kts
10-Feb-20 12:11 33.932872 -118.405432 11 118ft 0kts
10-Feb-20 12:12 33.932872 -118.405432 11 118ft 0kts
10-Feb-20 12:13 33.932872 -118.405432 11 118ft 0kts
10-Feb-20 12:14 33.932872 -118.405432 11 118ft 0kts
10-Feb-20 12:16 33.932872 -118.405432 11 118ft 0kts
10-Feb-20 12:17 33.932872 -118.405432 11 118ft 0kts
10-Feb-20 12:18 33.932872 -118.405432 11 118ft 0kts
10-Feb-20 12:19 33.932872 -118.405432 11 118ft 0kts
10-Feb-20 12:20 33.932872 -118.405432 11 118ft 0kts
10-Feb-20 12:21 33.932872 -118.405432 11 118ft 0kts
10-Feb-20 12:22 33.932872 -118.405432 11 118ft 0kts
10-Feb-20 12:23 33.932872 -118.405432 11 118ft 0kts
10-Feb-20 12:24 33.932872 -118.405432 11 118ft 0kts
10-Feb-20 12:25 33.932872 -118.405432 11 118ft 0kts
10-Feb-20 12:26 33.932872 -118.405432 11 118ft 0kts
10-Feb-20 12:27 33.932872 -118.405432 11 118ft 0kts
10-Feb-20 12:28 33.932872 -118.405432 11 118ft 0kts
10-Feb-20 12:29 33.933209 -118.405334 13 119ft 7kts
10-Feb-20 12:30 33.934318 -118.400368 82 113ft 23kts
10-Feb-20 12:31 33.935173 -118.392062 84 102ft 23kts
10-Feb-20 12:32 33.935906 -118.384927 83 99ft 18kts
10-Feb-20 12:33 33.936564 -118.382757 357 96ft 0kts
10-Feb-20 12:34 33.936564 -118.382757 357 96ft 0kts
10-Feb-20 12:35 33.937133 -118.382859 347 96ft 7kts
10-Feb-20 12:36 33.936267 -118.394754 258 291ft 76kts
10-Feb-20 12:37 33.933874 -118.423484 258 975ft 93kts
10-Feb-20 12:37 33.928348 -118.449336 216 1474ft 101kts
10-Feb-20 12:39 33.900209 -118.471328 210 2158ft 107kts
10-Feb-20 12:40 33.869377 -118.471992 172 2562ft 114kts
10-Feb-20 12:40 33.843165 -118.467967 172 2978ft 114kts
10-Feb-20 12:41 33.811763 -118.463610 172 3477ft 114kts
10-Feb-20 12:43 33.775880 -118.459082 165 3989ft 123kts
10-Feb-20 12:43 33.750347 -118.440692 142 3986ft 132kts
10-Feb-20 12:44 33.721801 -118.412974 118 3988ft 131kts
10-Feb-20 12:45 33.695748 -118.381550 149 3984ft 136kts
10-Feb-20 12:46 33.676413 -118.357365 48 3986ft 124kts
10-Feb-20 12:47 33.700815 -118.327942 58 3985ft 125kts
10-Feb-20 12:48 33.713383 -118.288609 68 3986ft 125kts
10-Feb-20 12:49 33.725135 -118.249854 68 3985ft 116kts
10-Feb-20 12:50 33.735931 -118.214526 68 3986ft 110kts
10-Feb-20 12:51 33.746426 -118.179698 68 3986ft 110kts
10-Feb-20 12:52 33.756960 -118.144895 68 3986ft 110kts
10-Feb-20 12:53 33.767426 -118.110422 68 3987ft 110kts
10-Feb-20 12:54 33.777009 -118.078731 68 3987ft 111kts
10-Feb-20 12:55 33.791432 -118.045948 49 3985ft 112kts
10-Feb-20 12:56 33.803793 -118.011414 69 3986ft 112kts
10-Feb-20 12:57 33.814978 -117.976603 56 3984ft 110kts
10-Feb-20 12:58 33.835523 -117.949256 52 3984ft 110kts
10-Feb-20 12:59 33.844633 -117.914259 75 3986ft 108kts
10-Feb-20 13:00 33.851030 -117.879054 75 3987ft 107kts
10-Feb-20 13:01 33.860216 -117.845651 62 3986ft 105kts
10-Feb-20 13:02 33.873010 -117.813403 63 3985ft 107kts
10-Feb-20 13:03 33.885428 -117.780668 65 3987ft 108kts
10-Feb-20 13:04 33.899309 -117.748797 60 3987ft 107kts
10-Feb-20 13:05 33.914410 -117.718192 32 3988ft 107kts
10-Feb-20 13:06 33.941872 -117.700669 27 3704ft 112kts
10-Feb-20 13:07 33.963534 -117.706810 262 3521ft 96kts
10-Feb-20 13:08 33.944465 -117.724284 195 3522ft 86kts
10-Feb-20 13:09 33.921590 -117.726068 172 3513ft 79kts
10-Feb-20 13:10 33.900536 -117.723760 178 3480ft 77kts
10-Feb-20 13:11 33.877108 -117.735340 213 3352ft 101kts
10-Feb-20 13:12 33.855532 -117.752060 215 3324ft 79kts
10-Feb-20 13:13 33.838057 -117.765602 209 3113ft 82kts
10-Feb-20 13:14 33.816033 -117.780154 207 2791ft 94kts
10-Feb-20 13:15 33.792564 -117.795134 207 2509ft 99kts
10-Feb-20 13:16 33.767798 -117.810575 206 2187ft 104kts
10-Feb-20 13:17 33.742890 -117.826515 204 1674ft 89kts
10-Feb-20 13:18 33.721321 -117.840492 205 1011ft 85kts
10-Feb-20 13:19 33.701356 -117.852947 204 492ft 83kts
10-Feb-20 13:20 33.680656 -117.865658 205 111ft 83kts
10-Feb-20 13:21 33.669116 -117.871584 142 60ft 2kts
10-Feb-20 13:22 33.669324 -117.870712 41 60ft 9kts
10-Feb-20 13:23 33.672189 -117.868077 30 60ft 9kts
10-Feb-20 13:24 33.671827 -117.867095 211 60ft 0kts
10-Feb-20 13:25 33.671827 -117.867095 211 60ft 0kts

Navigation Log

Ident Type
Flight plan parsing failed, navigation log unavailable